Time;durP1;ratioP1;P1;durP2;ratioP2;P2;SDS_P1;SDS_P2;PMS_P1;PMS_P2;Temp;Humidity;BMP_temperature;BMP_pressure;BME280_temperature;BME280_humidity;BME280_pressure;Samples;Min_cycle;Max_cycle;Signal;HPM_P1;HPM_P2
2023/08/22 00:00:58;;;;;;;2.08;1.00;;;;;;;20.00;71.64;102178.47;4992033;28;97955;-27
2023/08/22 00:03:23;;;;;;;1.70;0.88;;;;;;;20.01;71.51;102183.00;4990753;28;100678;-26
2023/08/22 00:05:49;;;;;;;2.00;1.05;;;;;;;19.92;71.16;102174.47;4991873;28;96570;-26
2023/08/22 00:08:14;;;;;;;2.17;0.77;;;;;;;19.95;71.46;102184.38;4992137;28;96780;-27
2023/08/22 00:10:40;;;;;;;2.35;1.00;;;;;;;19.93;71.33;102169.84;4991297;28;97854;-26
2023/08/22 00:13:06;;;;;;;2.03;1.10;;;;;;;19.96;71.90;102179.75;4991804;28;97313;-27
2023/08/22 00:15:32;;;;;;;2.85;0.80;;;;;;;19.97;71.76;102176.84;4991047;28;96823;-26
2023/08/22 00:17:57;;;;;;;2.72;0.88;;;;;;;19.92;71.22;102168.09;4991965;28;96831;-26
2023/08/22 00:20:23;;;;;;;2.80;1.25;;;;;;;19.91;71.26;102167.22;4991514;28;97774;-26
2023/08/22 00:22:49;;;;;;;1.58;0.88;;;;;;;19.90;71.49;102159.09;4990211;28;100891;-26
2023/08/22 00:25:14;;;;;;;1.77;0.95;;;;;;;;;;4991740;28;96648;-26
2023/08/22 00:27:39;;;;;;;4.72;1.08;;;;;;;19.82;71.60;102139.59;4992364;28;96598;-26
2023/08/22 00:30:06;;;;;;;1.88;1.00;;;;;;;19.84;72.46;102154.09;4990178;28;99357;-27
2023/08/22 00:32:31;;;;;;;1.17;0.88;;;;;;;19.85;72.27;102153.94;4990010;28;101112;-27
2023/08/22 00:34:57;;;;;;;1.92;1.00;;;;;;;19.81;71.95;102155.22;4990844;28;96714;-27
2023/08/22 00:37:23;;;;;;;1.25;0.88;;;;;;;19.82;72.44;102154.22;4991230;28;96831;-26
2023/08/22 00:39:48;;;;;;;2.33;1.02;;;;;;;19.77;72.14;102141.84;4991533;28;97334;-27
2023/08/22 00:42:14;;;;;;;1.88;1.02;;;;;;;19.78;72.29;102149.94;4989893;28;100471;-26
2023/08/22 00:44:40;;;;;;;3.78;1.00;;;;;;;19.78;72.48;102158.19;4991615;28;96754;-27
2023/08/22 00:47:06;;;;;;;1.40;0.88;;;;;;;19.78;72.43;102154.56;4991281;28;96841;-26
2023/08/22 00:49:33;;;;;;;1.90;0.80;;;;;;;19.75;72.51;102146.56;4991355;28;98163;-26
2023/08/22 00:51:59;;;;;;;2.17;0.90;;;;;;;19.71;72.45;102141.31;4990330;28;100914;-26
2023/08/22 00:54:26;;;;;;;1.70;0.90;;;;;;;19.68;72.66;102135.19;4992981;28;96717;-26
2023/08/22 00:56:53;;;;;;;1.33;0.93;;;;;;;19.66;72.64;102134.41;4993420;28;96945;-26
2023/08/22 00:59:19;;;;;;;3.55;1.00;;;;;;;19.63;72.01;102119.03;4992748;28;101485;-26
2023/08/22 01:01:44;;;;;;;3.55;1.20;;;;;;;19.59;72.84;102119.38;4994858;28;97274;-26
2023/08/22 01:04:09;;;;;;;3.20;1.13;;;;;;;19.64;72.62;102119.88;4994482;28;96645;-26
2023/08/22 01:06:50;;;;;;;2.50;1.33;;;;;;;19.66;72.40;102124.28;4994760;28;96905;-26
2023/08/22 01:09:36;;;;;;;6.45;1.55;;;;;;;19.64;73.45;102126.28;4994678;28;98013;-26
2023/08/22 01:12:42;;;;;;;2.03;1.30;;;;;;;19.60;73.07;102116.53;4994061;28;99585;-26
2023/08/22 01:15:18;;;;;;;2.63;0.95;;;;;;;19.57;73.17;102110.38;4994445;28;96751;-26
2023/08/22 01:17:43;;;;;;;1.52;0.98;;;;;;;19.57;73.03;102116.78;4993556;28;96607;-26
2023/08/22 01:20:12;;;;;;;3.22;1.10;;;;;;;19.55;72.74;102120.66;4994298;28;98040;-26
2023/08/22 01:22:40;;;;;;;1.65;0.80;;;;;;;19.57;73.27;102129.63;4992696;28;101163;-26
2023/08/22 01:25:07;;;;;;;1.63;1.05;;;;;;;19.57;73.35;102121.38;4993764;28;96580;-26
2023/08/22 01:27:39;;;;;;;1.58;0.95;;;;;;;19.48;73.68;102114.75;4992856;28;96802;-26
2023/08/22 01:30:18;;;;;;;2.35;0.98;;;;;;;19.50;73.40;102124.63;4994366;28;97444;-26
2023/08/22 01:32:49;;;;;;;2.03;1.27;;;;;;;19.50;73.50;102124.63;4992725;28;100854;-26
2023/08/22 01:35:16;;;;;;;1.57;1.13;;;;;;;19.44;73.95;102125.09;4993945;28;96618;-26
2023/08/22 01:37:43;;;;;;;2.63;1.52;;;;;;;19.47;73.67;102124.88;4993914;28;96880;-26
2023/08/22 01:40:10;;;;;;;1.60;0.80;;;;;;;19.43;74.56;102128.84;4976088;28;101138;-26
2023/08/22 01:42:35;;;;;;;1.73;1.05;;;;;;;19.43;74.20;102128.84;4992948;28;102409;-26
2023/08/22 01:45:01;;;;;;;3.38;1.20;;;;;;;19.41;74.39;102128.09;4994198;28;96557;-26
2023/08/22 01:47:26;;;;;;;1.33;0.90;;;;;;;19.40;74.41;102125.47;4994433;28;96769;-26
2023/08/22 01:49:51;;;;;;;1.88;0.70;;;;;;;19.38;74.47;102116.47;4993361;28;97573;-26
2023/08/22 01:52:16;;;;;;;2.35;1.30;;;;;;;19.38;73.91;102121.94;4992415;28;99156;-26
2023/08/22 01:54:43;;;;;;;2.53;0.95;;;;;;;19.33;74.62;102114.09;4994360;28;96698;-27
2023/08/22 01:57:09;;;;;;;2.10;0.93;;;;;;;19.36;74.68;102129.47;4992391;28;96795;-27
2023/08/22 01:59:34;;;;;;;5.47;1.20;;;;;;;19.30;73.96;102117.94;4993424;28;99227;-28
2023/08/22 02:02:00;;;;;;;2.13;1.02;;;;;;;19.29;74.43;102118.06;4993704;28;97766;-26
2023/08/22 02:04:25;;;;;;;7.20;1.20;;;;;;;19.29;74.82;102126.31;4992097;28;96623;-26
2023/08/22 02:06:50;;;;;;;2.42;1.23;;;;;;;19.24;74.62;102118.44;4994008;28;96851;-26
2023/08/22 02:09:16;;;;;;;2.47;1.20;;;;;;;19.22;75.23;102127.78;4993749;28;97895;-26
2023/08/22 02:11:41;;;;;;;2.33;1.45;;;;;;;19.15;75.21;102105.41;4991990;28;101038;-26
2023/08/22 02:14:06;;;;;;;3.40;1.58;;;;;;;19.15;75.06;102108.16;4993176;28;96532;-26
2023/08/22 02:16:33;;;;;;;3.08;1.23;;;;;;;19.12;75.98;102115.78;4993055;28;96779;-27
2023/08/22 02:18:59;;;;;;;2.47;1.30;;;;;;;19.12;75.57;102113.03;4991661;28;101540;-26
2023/08/22 02:21:24;;;;;;;2.83;1.48;;;;;;;19.14;76.16;102119.25;4993559;28;97250;-26
2023/08/22 02:23:50;;;;;;;3.70;1.33;;;;;;;19.13;75.58;102125.75;4991966;28;96502;-26
2023/08/22 02:26:16;;;;;;;2.83;1.30;;;;;;;19.06;75.81;102112.47;4993741;28;96723;-27
2023/08/22 02:28:41;;;;;;;3.72;1.40;;;;;;;19.08;75.95;102118.75;4991833;28;100723;-26
2023/08/22 02:31:07;;;;;;;5.03;1.55;;;;;;;19.05;76.15;102115.38;4992121;28;100718;-26
2023/08/22 02:33:32;;;;;;;3.92;1.75;;;;;;;19.05;76.27;102120.88;4993396;28;96505;-26
2023/08/22 02:35:57;;;;;;;2.13;1.38;;;;;;;19.07;76.45;102118.88;4993226;28;96784;-26
2023/08/22 02:38:23;;;;;;;3.15;1.80;;;;;;;19.05;75.89;102112.63;4992455;28;97038;-26
2023/08/22 02:40:48;;;;;;;5.43;1.50;;;;;;;19.05;76.37;102118.13;4992955;28;97761;-27
2023/08/22 02:43:14;;;;;;;2.67;1.35;;;;;;;19.02;76.26;102113.75;4993096;28;96505;-26
2023/08/22 02:45:39;;;;;;;3.25;1.60;;;;;;;19.01;76.48;102105.59;4993301;28;96798;-26
2023/08/22 02:48:05;;;;;;;2.92;1.60;;;;;;;18.98;76.51;102101.22;4992892;28;97994;-26
2023/08/22 02:50:31;;;;;;;3.88;1.33;;;;;;;18.93;76.84;102091.59;4991490;28;100961;-26
2023/08/22 02:52:56;;;;;;;3.65;1.50;;;;;;;18.92;76.68;102098.94;4992968;28;96677;-26
2023/08/22 02:55:24;;;;;;;2.50;1.25;;;;;;;18.94;76.65;102107.94;4993188;28;96813;-26
2023/08/22 02:57:50;;;;;;;4.10;1.65;;;;;;;18.91;77.23;102108.19;4992570;28;99330;-27
2023/08/22 03:00:15;;;;;;;2.40;1.38;;;;;;;18.84;76.99;102098.66;4992472;28;98925;-26
2023/08/22 03:02:40;;;;;;;3.50;1.45;;;;;;;18.85;76.96;102103.16;4992239;28;96608;-27
2023/08/22 03:05:13;;;;;;;4.72;1.55;;;;;;;18.84;77.08;102106.91;4992737;28;96837;-26
2023/08/22 03:07:39;;;;;;;3.67;1.45;;;;;;;18.79;77.20;102100.91;4992597;28;99389;-26
2023/08/22 03:10:05;;;;;;;5.90;1.80;;;;;;;18.84;76.85;102101.41;4991136;28;101221;-26
2023/08/22 03:12:30;;;;;;;4.28;1.80;;;;;;;18.83;76.89;102099.66;4991109;28;97250;-26
2023/08/22 03:14:56;;;;;;;4.75;1.63;;;;;;;18.79;77.37;102101.78;4991406;28;96832;-26
2023/08/22 03:17:21;;;;;;;2.25;1.38;;;;;;;18.77;76.87;102092.75;4990445;28;99204;-27
2023/08/22 03:19:47;;;;;;;3.38;1.55;;;;;;;18.80;76.73;102110.88;4992754;28;97972;-27
2023/08/22 03:22:12;;;;;;;3.15;1.67;;;;;;;18.76;76.92;102099.25;4992638;28;96547;-26
2023/08/22 03:24:37;;;;;;;5.50;1.83;;;;;;;18.71;77.18;102095.97;4992577;28;96823;-26
2023/08/22 03:27:03;;;;;;;3.53;1.33;;;;;;;18.75;77.38;102099.34;4991756;28;99228;-26
2023/08/22 03:29:28;;;;;;;2.72;1.48;;;;;;;18.73;77.58;102099.44;4992413;28;98033;-27
2023/08/22 03:31:54;;;;;;;3.33;1.52;;;;;;;18.67;76.82;102092.56;4992162;28;96756;-26
2023/08/22 03:34:19;;;;;;;3.30;0.98;;;;;;;18.67;76.98;102089.81;4992762;28;96912;-28
2023/08/22 03:36:44;;;;;;;2.55;1.40;;;;;;;18.66;77.53;102087.19;4992091;28;99248;-26
2023/08/22 03:39:10;;;;;;;3.80;1.58;;;;;;;18.64;77.54;102081.81;4992088;28;97784;-27
2023/08/22 03:41:35;;;;;;;2.97;1.42;;;;;;;18.66;77.31;102089.91;4992056;28;96489;-26
2023/08/22 03:44:01;;;;;;;4.90;1.40;;;;;;;18.66;77.30;102093.56;4992591;28;96803;-26
2023/08/22 03:46:26;;;;;;;3.35;1.30;;;;;;;18.58;77.10;102073.19;4992244;28;97423;-27
2023/08/22 03:48:51;;;;;;;2.78;1.40;;;;;;;18.59;76.99;102078.56;4992364;28;97259;-26
2023/08/22 03:51:17;;;;;;;3.20;1.58;;;;;;;18.61;77.40;102079.28;4990223;28;96566;-26
2023/08/22 03:53:42;;;;;;;2.70;1.27;;;;;;;18.61;77.10;102076.53;4992422;28;96984;-26
2023/08/22 03:56:07;;;;;;;3.30;1.40;;;;;;;18.57;76.91;102074.19;4990683;28;99175;-26
2023/08/22 03:58:33;;;;;;;2.40;1.27;;;;;;;18.51;77.16;102059.03;4992095;28;97410;-26
2023/08/22 04:01:03;;;;;;;3.50;1.45;;;;;;;18.55;77.39;102070.66;4990467;28;96628;-26
2023/08/22 04:03:29;;;;;;;1.80;1.17;;;;;;;18.56;77.02;102073.28;4990562;28;96861;-27
2023/08/22 04:05:55;;;;;;;3.60;1.05;;;;;;;18.52;77.08;102073.63;4990279;28;100224;-26
2023/08/22 04:08:21;;;;;;;3.92;1.30;;;;;;;18.52;77.41;102082.75;4990755;28;100957;-26
2023/08/22 04:10:46;;;;;;;1.80;1.02;;;;;;;18.48;77.35;102058.41;4991800;28;96636;-26
2023/08/22 04:13:11;;;;;;;4.82;1.30;;;;;;;18.44;77.41;102058.63;4991664;28;96802;-27
2023/08/22 04:15:39;;;;;;;3.67;1.20;;;;;;;18.42;77.51;102054.25;4990167;28;98870;-27
2023/08/22 04:18:05;;;;;;;4.82;1.63;;;;;;;18.43;77.45;102070.59;4990327;28;101521;-26
2023/08/22 04:20:30;;;;;;;2.97;1.30;;;;;;;18.40;78.11;102070.84;4991884;28;97221;-26
2023/08/22 04:22:56;;;;;;;2.20;1.33;;;;;;;18.38;77.83;102069.22;4991883;28;96766;-26
2023/08/22 04:25:21;;;;;;;5.40;1.95;;;;;;;18.37;77.73;102073.78;4991497;28;99283;-26
2023/08/22 04:27:46;;;;;;;1.50;0.98;;;;;;;18.35;77.54;102072.16;4993852;28;97852;-26
2023/08/22 04:30:12;;;;;;;4.38;1.35;;;;;;;18.32;78.22;102080.63;4994933;28;96665;-26
2023/08/22 04:32:37;;;;;;;4.38;1.80;;;;;;;18.29;77.37;102068.00;4995563;28;96964;-27
2023/08/22 04:35:03;;;;;;;2.78;1.42;;;;;;;18.35;77.91;102081.28;4995120;28;97934;-26
2023/08/22 04:37:28;;;;;;;3.28;1.85;;;;;;;18.34;78.07;102087.75;4994971;28;97836;-26
2023/08/22 04:39:54;;;;;;;3.28;1.65;;;;;;;18.31;78.70;102088.00;4994548;28;96500;-26
2023/08/22 04:42:19;;;;;;;4.85;2.00;;;;;;;18.36;77.59;102087.66;4994787;28;96839;-26
2023/08/22 04:44:45;;;;;;;4.57;1.83;;;;;;;18.35;78.41;102085.88;4994829;28;97936;-27
2023/08/22 04:47:10;;;;;;;6.85;2.08;;;;;;;18.36;78.27;102082.16;4994579;28;99699;-26
2023/08/22 04:49:36;;;;;;;4.80;2.08;;;;;;;18.34;78.44;102086.88;4995109;28;96588;-26
2023/08/22 04:52:02;;;;;;;4.03;2.38;;;;;;;18.31;78.24;102070.66;4994737;28;96586;-26
2023/08/22 04:54:27;;;;;;;6.43;2.33;;;;;;;18.37;78.26;102083.91;4992031;28;99528;-26
2023/08/22 04:56:53;;;;;;;5.93;1.88;;;;;;;18.34;78.77;102074.03;4993951;28;97966;-29
2023/08/22 04:59:18;;;;;;;8.20;2.42;;;;;;;18.35;78.48;102064.81;4993340;28;96683;-26
2023/08/22 05:01:43;;;;;;;4.05;2.35;;;;;;;18.36;78.59;102065.69;4993427;28;96853;-27
2023/08/22 05:04:09;;;;;;;6.20;2.03;;;;;;;18.37;79.08;102061.94;4992171;28;98379;-27
2023/08/22 05:06:34;;;;;;;4.60;2.13;;;;;;;18.38;79.00;102067.34;4994547;28;97770;-26
2023/08/22 05:08:59;;;;;;;6.82;2.17;;;;;;;18.40;79.38;102068.09;4993571;28;97090;-27
2023/08/22 05:11:25;;;;;;;4.32;1.95;;;;;;;18.39;79.36;102079.19;4993755;28;97302;-27
2023/08/22 05:13:50;;;;;;;5.00;2.28;;;;;;;18.43;78.79;102080.72;4992150;28;99503;-32
2023/08/22 05:16:16;;;;;;;3.42;2.00;;;;;;;18.44;79.37;102074.22;4992226;28;97700;-26
2023/08/22 05:18:41;;;;;;;4.90;2.08;;;;;;;18.44;78.29;102072.34;4993195;28;96662;-26
2023/08/22 05:21:06;;;;;;;4.28;2.30;;;;;;;18.51;79.22;102080.13;4993248;28;97251;-30
2023/08/22 05:23:32;;;;;;;6.38;2.40;;;;;;;18.54;78.99;102078.00;4991980;28;97179;-31
2023/08/22 05:25:57;;;;;;;5.32;2.38;;;;;;;18.59;78.98;102084.06;4992061;28;97259;-29
2023/08/22 05:28:22;;;;;;;5.25;2.30;;;;;;;18.56;78.20;102067.78;4991444;28;97152;-27
2023/08/22 05:30:48;;;;;;;7.22;2.15;;;;;;;18.67;78.98;102080.72;4991548;28;97588;-27
2023/08/22 05:33:13;;;;;;;4.97;2.13;;;;;;;18.73;78.74;102084.84;4991719;28;97505;-27
2023/08/22 05:35:38;;;;;;;5.35;2.25;;;;;;;18.73;78.81;102074.75;4991743;28;98799;-27
2023/08/22 05:38:04;;;;;;;3.20;2.05;;;;;;;18.77;78.78;102084.53;4993769;28;96648;-26
2023/08/22 05:40:30;;;;;;;5.07;2.28;;;;;;;18.74;78.43;102082.00;4993696;28;96840;-27
2023/08/22 05:42:56;;;;;;;3.80;1.88;;;;;;;18.77;78.45;102075.44;4993862;28;99569;-26
2023/08/22 05:45:21;;;;;;;3.53;1.85;;;;;;;18.83;78.78;102091.41;4994243;28;97804;-27
2023/08/22 05:47:47;;;;;;;4.63;2.20;;;;;;;18.78;78.28;102083.56;4994109;28;96651;-26
2023/08/22 05:50:12;;;;;;;2.92;1.67;;;;;;;18.82;77.76;102095.16;4993979;28;96779;-26
2023/08/22 05:52:37;;;;;;;2.45;1.55;;;;;;;18.81;78.98;102094.28;4993489;28;98185;-26
2023/08/22 05:55:03;;;;;;;3.63;1.70;;;;;;;18.82;78.74;102086.94;4994127;28;97495;-27
2023/08/22 05:57:29;;;;;;;3.63;1.60;;;;;;;18.86;78.45;102088.44;4992401;28;97263;-27
2023/08/22 05:59:55;;;;;;;2.53;1.63;;;;;;;18.91;77.97;102097.19;4993813;28;96799;-26
2023/08/22 06:02:21;;;;;;;7.00;1.52;;;;;;;18.92;77.56;102090.72;4992350;28;100925;-26
2023/08/22 06:04:46;;;;;;;2.33;1.45;;;;;;;18.97;78.17;102090.34;4993811;28;97814;-27
2023/08/22 06:07:12;;;;;;;4.00;1.52;;;;;;;19.03;77.72;102088.00;4993669;28;96650;-26
2023/08/22 06:09:37;;;;;;;2.83;1.50;;;;;;;19.14;77.06;102100.03;4993863;28;96819;-27
2023/08/22 06:12:03;;;;;;;4.50;1.40;;;;;;;19.16;76.71;102096.16;4993498;28;97374;-26
2023/08/22 06:14:29;;;;;;;3.58;2.00;;;;;;;19.23;77.12;102102.06;4992673;28;99765;-26
2023/08/22 06:16:54;;;;;;;4.00;1.48;;;;;;;19.23;76.81;102096.56;4991876;28;96528;-26
2023/08/22 06:19:20;;;;;;;3.80;1.60;;;;;;;19.32;76.25;102112.34;4993523;28;96721;-27
2023/08/22 06:21:45;;;;;;;4.05;1.35;;;;;;;19.37;76.39;102109.22;4993516;28;97997;-26
2023/08/22 06:24:11;;;;;;;3.10;1.58;;;;;;;19.44;76.28;102114.09;4993366;28;97784;-26
2023/08/22 06:26:36;;;;;;;3.42;1.70;;;;;;;19.50;76.40;102102.63;4993257;28;96605;-26
2023/08/22 06:29:02;;;;;;;4.78;2.00;;;;;;;19.59;75.74;102098.25;4993464;28;96808;-26
2023/08/22 06:31:27;;;;;;;4.55;2.05;;;;;;;19.72;75.51;102103.72;4993015;28;99498;-26
2023/08/22 06:33:53;;;;;;;4.68;1.88;;;;;;;19.78;75.44;102103.19;4993692;28;98249;-26
2023/08/22 06:36:18;;;;;;;6.03;1.83;;;;;;;19.84;75.55;102099.97;4993482;28;96531;-27
2023/08/22 06:38:43;;;;;;;3.63;1.60;;;;;;;19.85;75.49;102096.19;4993175;28;96521;-26
2023/08/22 06:41:09;;;;;;;2.80;1.52;;;;;;;19.92;75.44;102093.84;4992299;28;99902;-26
2023/08/22 06:43:34;;;;;;;4.65;1.58;;;;;;;20.10;75.04;102102.47;4992877;28;97138;-28
2023/08/22 06:46:00;;;;;;;5.13;2.15;;;;;;;20.29;74.46;102110.97;4993029;28;96452;-26
2023/08/22 06:48:26;;;;;;;6.50;2.28;;;;;;;20.45;74.48;102113.31;4993031;28;96807;-27
2023/08/22 06:50:52;;;;;;;8.27;2.22;;;;;;;20.46;73.37;102098.53;4991448;28;100978;-27
2023/08/22 06:53:18;;;;;;;4.10;2.17;;;;;;;20.51;73.79;102096.28;4992938;28;97894;-26
2023/08/22 06:55:47;;;;;;;4.53;2.10;;;;;;;20.50;73.79;102090.91;4992997;28;96508;-27
2023/08/22 06:58:12;;;;;;;2.95;1.88;;;;;;;20.49;74.39;102100.16;4993425;28;96798;-27
2023/08/22 07:00:38;;;;;;;5.63;2.03;;;;;;;20.75;73.88;102101.63;4992701;28;97920;-26
2023/08/22 07:03:03;;;;;;;5.07;2.00;;;;;;;20.94;73.29;102094.53;4992547;28;99329;-26
2023/08/22 07:05:29;;;;;;;4.30;2.22;;;;;;;21.09;72.73;102109.75;4992281;28;96673;-27
2023/08/22 07:07:54;;;;;;;4.43;1.88;;;;;;;21.16;72.36;102110.97;4992812;28;96795;-27
2023/08/22 07:10:20;;;;;;;3.92;2.17;;;;;;;21.14;72.04;102120.38;4992690;28;97907;-26
2023/08/22 07:12:45;;;;;;;5.00;2.35;;;;;;;21.23;72.69;102111.31;4992077;28;98824;-27
2023/08/22 07:15:10;;;;;;;5.35;1.80;;;;;;;21.47;71.63;102124.88;4990856;28;96845;-27
2023/08/22 07:17:36;;;;;;;4.65;2.05;;;;;;;21.55;71.56;102135.25;4992570;28;96864;-27
2023/08/22 07:20:02;;;;;;;5.63;2.30;;;;;;;21.48;71.24;102126.63;4992328;28;99153;-27
2023/08/22 07:22:27;;;;;;;5.80;2.50;;;;;;;21.44;71.78;102122.38;4991318;28;101251;-26
2023/08/22 07:24:52;;;;;;;6.80;2.42;;;;;;;21.35;72.09;102126.78;4992697;28;96564;-27
2023/08/22 07:27:18;;;;;;;6.65;2.33;;;;;;;21.25;72.02;102130.47;4992740;28;96871;-26
2023/08/22 07:29:44;;;;;;;4.47;2.00;;;;;;;21.32;72.38;102145.47;4991857;28;97907;-26
2023/08/22 07:32:09;;;;;;;4.40;2.20;;;;;;;21.27;72.88;102145.00;4992409;28;97891;-28
2023/08/22 07:34:35;;;;;;;4.32;1.88;;;;;;;21.19;72.50;102146.53;4992689;28;96498;-26
2023/08/22 07:37:01;;;;;;;5.63;2.03;;;;;;;21.15;73.17;102141.44;4997805;28;96932;-27
2023/08/22 07:39:29;;;;;;;7.63;2.50;;;;;;;21.13;73.70;102144.31;5009225;28;98007;-26
2023/08/22 07:41:54;;;;;;;4.68;1.98;;;;;;;21.13;73.25;102149.81;5003986;28;99457;-27
2023/08/22 07:44:20;;;;;;;4.20;2.05;;;;;;;21.10;72.97;102155.59;5001766;28;96653;-27
2023/08/22 07:46:45;;;;;;;7.28;2.15;;;;;;;21.13;73.38;102159.97;4991174;28;96856;-26
2023/08/22 07:49:11;;;;;;;4.97;1.92;;;;;;;21.14;74.32;102164.47;4992170;28;101414;-26
2023/08/22 07:51:36;;;;;;;6.15;2.17;;;;;;;21.06;74.05;102156.00;4991890;28;99381;-27
2023/08/22 07:54:03;;;;;;;3.80;1.75;;;;;;;21.11;74.05;102170.25;4991693;28;96551;-27
2023/08/22 07:56:29;;;;;;;5.30;2.30;;;;;;;21.11;73.86;102168.34;4990350;28;97101;-26
2023/08/22 07:58:54;;;;;;;4.88;1.52;;;;;;;21.12;73.87;102163.75;4992144;28;98767;-26
2023/08/22 08:01:19;;;;;;;7.55;2.30;;;;;;;21.14;73.60;102167.22;4992616;28;97507;-26
2023/08/22 08:03:45;;;;;;;5.30;2.35;;;;;;;21.14;74.05;102156.19;4999122;28;96471;-26
2023/08/22 08:06:11;;;;;;;7.65;2.22;;;;;;;21.18;73.92;102161.31;4998746;28;96809;-26
2023/08/22 08:08:36;;;;;;;7.53;2.35;;;;;;;21.22;74.11;102148.16;4997091;28;101234;-27
2023/08/22 08:11:02;;;;;;;7.60;2.17;;;;;;;21.15;73.96;102158.81;4998787;28;97817;-27
2023/08/22 08:13:27;;;;;;;4.40;1.95;;;;;;;21.24;74.15;102165.44;4996949;28;96607;-26
2023/08/22 08:15:53;;;;;;;8.50;2.55;;;;;;;21.34;73.93;102162.75;4998283;28;97029;-27
2023/08/22 08:18:18;;;;;;;6.00;2.33;;;;;;;21.42;73.73;102152.84;4997909;28;97770;-27
2023/08/22 08:20:43;;;;;;;4.38;2.15;;;;;;;21.52;73.90;102152.03;4997982;28;98899;-26
2023/08/22 08:23:10;;;;;;;4.50;2.15;;;;;;;21.62;73.23;102159.38;4998272;28;96476;-27
2023/08/22 08:25:36;;;;;;;4.38;2.00;;;;;;;21.63;73.66;102160.25;4996604;28;96908;-26
2023/08/22 08:28:01;;;;;;;6.15;2.88;;;;;;;21.56;73.51;102153.53;4998258;28;97604;-26
2023/08/22 08:30:27;;;;;;;5.78;2.65;;;;;;;21.46;73.63;102147.94;4996723;28;100825;-27
2023/08/22 08:32:52;;;;;;;6.18;2.72;;;;;;;21.54;74.29;102142.63;4998555;28;96448;-27
2023/08/22 08:35:18;;;;;;;4.97;3.03;;;;;;;21.48;74.21;102132.16;4998482;28;96842;-27
2023/08/22 08:37:45;;;;;;;7.07;3.15;;;;;;;21.60;73.27;102141.22;4997736;28;99302;-26
2023/08/22 08:40:10;;;;;;;5.38;2.80;;;;;;;21.64;73.81;102139.91;4997852;28;97911;-26
2023/08/22 08:42:36;;;;;;;4.43;2.55;;;;;;;21.58;73.43;102141.34;4997640;28;96614;-27
2023/08/22 08:45:04;;;;;;;4.93;2.55;;;;;;;21.63;73.91;102147.31;4996751;28;97357;-27
2023/08/22 08:47:31;;;;;;;7.47;2.17;;;;;;;21.74;73.85;102138.13;4997998;28;97934;-26
2023/08/22 08:49:59;;;;;;;4.28;1.98;;;;;;;21.85;73.13;102151.81;4996499;28;100649;-27
2023/08/22 08:52:24;;;;;;;5.10;2.08;;;;;;;21.81;72.98;102132.94;4996595;28;96604;-27
2023/08/22 08:54:51;;;;;;;5.22;2.25;;;;;;;21.96;73.11;102137.06;4997978;28;96790;-26
2023/08/22 08:57:16;;;;;;;3.40;2.17;;;;;;;22.21;72.40;102151.44;4996428;28;100939;-27
2023/08/22 08:59:41;;;;;;;7.50;2.63;;;;;;;22.42;72.04;102155.03;4997988;28;99263;-26
2023/08/22 09:02:15;;;;;;;3.58;2.03;;;;;;;22.51;71.58;102160.72;4998375;28;96482;-27
2023/08/22 09:04:40;;;;;;;4.93;1.80;;;;;;;22.63;71.03;102152.19;4996578;28;96750;-26
2023/08/22 09:07:09;;;;;;;3.53;2.10;;;;;;;22.68;71.29;102147.09;4997370;28;97856;-26
2023/08/22 09:09:35;;;;;;;4.05;1.90;;;;;;;22.75;71.05;102157.59;4997504;28;97322;-26
2023/08/22 09:12:06;;;;;;;3.15;1.58;;;;;;;22.82;70.70;102159.63;4996112;28;96841;-26
2023/08/22 09:14:32;;;;;;;4.00;2.13;;;;;;;22.79;70.68;102159.94;4991647;28;96873;-28
2023/08/22 09:17:04;;;;;;;3.63;1.80;;;;;;;22.80;70.55;102167.19;4993171;28;100864;-27
2023/08/22 09:19:33;;;;;;;6.93;1.80;;;;;;;22.66;70.95;102148.25;4992892;28;100574;-26
2023/08/22 09:22:02;;;;;;;2.72;1.33;;;;;;;22.76;70.94;102157.44;4992782;28;96853;-27
2023/08/22 09:24:28;;;;;;;4.30;1.02;;;;;;;22.73;70.11;102154.09;4993385;28;96738;-26
2023/08/22 09:26:54;;;;;;;3.53;1.10;;;;;;;22.62;69.91;102158.72;4993963;28;99470;-26
2023/08/22 09:29:30;;;;;;;2.63;1.10;;;;;;;22.67;69.25;102158.31;4994009;28;98919;-26
2023/08/22 09:32:01;;;;;;;3.10;1.10;;;;;;;22.66;70.42;102154.66;4992428;28;97300;-26
2023/08/22 09:34:27;;;;;;;2.30;0.70;;;;;;;22.79;69.61;102157.16;4994601;28;96819;-27
2023/08/22 09:36:53;;;;;;;1.50;0.82;;;;;;;22.83;69.58;102155.84;4993851;28;99133;-27
2023/08/22 09:39:19;;;;;;;3.38;1.27;;;;;;;22.95;68.99;102155.72;4992373;28;99047;-27
2023/08/22 09:41:45;;;;;;;3.97;1.02;;;;;;;22.90;68.34;102164.44;4994049;28;96630;-26
2023/08/22 09:44:11;;;;;;;2.63;0.90;;;;;;;22.99;68.64;102162.75;4993974;28;96783;-27
2023/08/22 09:46:41;;;;;;;1.92;0.65;;;;;;;23.11;67.98;102164.34;4993637;28;99407;-27
2023/08/22 09:49:11;;;;;;;3.58;0.77;;;;;;;23.03;67.41;102161.47;4992640;28;101101;-26
2023/08/22 09:51:37;;;;;;;1.80;0.68;;;;;;;22.87;65.19;102160.06;4994062;28;96666;-26
2023/08/22 09:54:04;;;;;;;2.88;0.57;;;;;;;22.82;67.50;102159.63;4992539;28;96825;-26
2023/08/22 09:56:31;;;;;;;1.75;0.55;;;;;;;22.80;67.10;102163.56;4991848;28;101117;-27
2023/08/22 09:59:00;;;;;;;3.92;0.60;;;;;;;22.84;67.60;102165.91;4992202;28;101294;-27
2023/08/22 10:01:28;;;;;;;1.15;0.50;;;;;;;22.83;67.29;102161.38;4992108;28;96629;-27
2023/08/22 10:03:54;;;;;;;1.63;0.47;;;;;;;22.90;67.74;102151.50;4992314;28;96861;-26
2023/08/22 10:06:29;;;;;;;2.75;0.82;;;;;;;23.00;67.45;102170.00;4992257;28;100857;-27
2023/08/22 10:08:54;;;;;;;3.80;0.60;;;;;;;22.97;67.22;102161.97;4993384;28;98986;-26
2023/08/22 10:11:22;;;;;;;1.52;0.55;;;;;;;23.06;66.66;102169.44;4993857;28;96744;-26
2023/08/22 10:13:50;;;;;;;2.10;0.70;;;;;;;23.01;66.22;102157.97;4992309;28;96867;-26
2023/08/22 10:16:16;;;;;;;1.95;0.63;;;;;;;23.00;66.74;102154.34;4991509;28;100991;-27
2023/08/22 10:18:41;;;;;;;2.85;0.60;;;;;;;22.94;66.49;102151.22;4993379;28;99411;-27
2023/08/22 10:21:06;;;;;;;3.28;0.90;;;;;;;22.96;66.55;102150.06;4993086;28;96553;-27
2023/08/22 10:23:44;;;;;;;3.38;0.47;;;;;;;23.03;66.22;102164.22;4992015;28;96975;-26
2023/08/22 10:26:09;;;;;;;2.47;0.80;;;;;;;23.03;65.80;102154.03;4993038;28;98078;-26
2023/08/22 10:28:41;;;;;;;2.50;0.60;;;;;;;23.15;65.92;102167.72;4992860;28;99125;-26
2023/08/22 10:31:07;;;;;;;1.65;0.60;;;;;;;23.23;66.16;102165.09;4991994;28;96842;-27
2023/08/22 10:33:32;;;;;;;5.25;0.93;;;;;;;23.30;66.01;102169.03;4993153;28;96827;-27
2023/08/22 10:36:07;;;;;;;2.28;0.68;;;;;;;23.33;65.33;102163.19;4993156;28;97550;-27
2023/08/22 10:38:52;;;;;;;2.80;0.80;;;;;;;23.41;65.63;102170.78;4991913;28;101106;-27
2023/08/22 10:41:22;;;;;;;3.50;0.80;;;;;;;23.44;65.95;102176.88;4992902;28;96559;-26
2023/08/22 10:43:48;;;;;;;5.07;1.00;;;;;;;23.51;65.54;102179.94;4991826;28;96824;-27
2023/08/22 10:46:14;;;;;;;3.40;0.90;;;;;;;23.50;65.65;102175.41;4991201;28;100787;-26
2023/08/22 10:48:39;;;;;;;3.05;0.80;;;;;;;23.40;64.95;102167.13;4992906;28;99662;-27
2023/08/22 10:51:06;;;;;;;1.85;0.70;;;;;;;23.23;65.54;102146.59;4992776;28;96502;-26
2023/08/22 10:53:42;;;;;;;3.00;0.77;;;;;;;23.34;65.67;102161.31;4991465;28;96890;-27
2023/08/22 10:56:21;;;;;;;1.10;0.60;;;;;;;23.34;65.32;102161.31;4991493;28;101085;-27
2023/08/22 10:58:58;;;;;;;4.45;1.08;;;;;;;23.30;65.87;102163.50;4991544;28;101391;-27
2023/08/22 11:01:24;;;;;;;3.50;1.10;;;;;;;23.29;66.00;102172.81;4993022;28;96675;-27
2023/08/22 11:03:51;;;;;;;2.85;1.00;;;;;;;23.29;65.83;102170.91;4991796;28;96734;-26
2023/08/22 11:06:18;;;;;;;2.55;0.90;;;;;;;23.33;65.66;102171.50;4991019;28;100976;-27
2023/08/22 11:08:44;;;;;;;1.30;0.77;;;;;;;23.38;65.87;102171.91;4992653;28;97793;-26
2023/08/22 11:11:12;;;;;;;1.50;1.02;;;;;;;23.34;65.80;102172.38;4990846;28;96618;-26
2023/08/22 11:13:38;;;;;;;2.20;0.85;;;;;;;23.31;66.30;102173.53;4991306;28;96818;-28
2023/08/22 11:16:09;;;;;;;1.25;0.65;;;;;;;23.39;65.76;102186.66;4992531;28;97432;-26
2023/08/22 11:18:35;;;;;;;2.22;0.50;;;;;;;23.34;65.94;102170.50;4992401;28;99396;-26
2023/08/22 11:21:02;;;;;;;3.08;0.95;;;;;;;23.37;66.59;102169.31;4992493;28;96480;-26